Airfield :
LOGIN :

Register | Disclaimer

   EN    FR    IT 

 










Legend :    VFR   Marginal VFR   IFR   Intensive IFR   Very Intensive IFR
Visi :
Ceiling :
>= 8 km
>= 3000ft
5 to 8 km
1000 to 3000 ft
1500m to 5 km
500 to 1000 ft
800 to 1500m
200 to 500 ft
< 800m
< 200 ft
Symbols :   Thunderstorms  Fog  Heavy snow  Heavy precipitations  Wind > 20 kt
SIGMETs :     Misc.  Thunderstorms  Icing  Turbulence  Mountain Waves  Volcanic Ashes







- Airport Elevation : 268 ft
- IATA code : BFS
- Download approach charts


EGAA - Belfast Aldergrove

CURRENT METAR :
  • 222150Z 03017KT 9999 -RA BKN022 OVC027 05/02 Q1015

EXPIRED METARs :
  • 222120Z 03017KT 9999 -RA FEW016 SCT021 BKN027 04/02 Q1014
  • 222050Z 03017KT 9999 -RA FEW015 SCT020 BKN026 04/02 Q1014
  • 222020Z 03018KT 9999 -RA SCT015 BKN019 04/02 Q1013
  • 221950Z 04020G32KT 8000 -RA SCT015 BKN019 04/02 Q1013
  • 221920Z 03017KT 9999 -RA SCT019 BKN024 05/02 Q1012

TAF TAF EGAA
Valid from the 22 at 18:00 until the 23 at 18:00 UTC


221702Z 2218/2318 02014KT 9999 SCT015 BKN025
TEMPO 2218/2306 04020G30KT
TEMPO 2218/2313 7000 RA -RADZ BKN010
No reported NOTAMs for that airfield.



MET'MAP, your aeronautical weather chart ! - Copyright ORBIFLY December 2007 - Disclaimer

ORBIFLY MET'MAP TEAM :

Programming & Development : Alexandra Zaïnal
Concept & Development : Baudouin d'Aumeries
Co-Development & Prog : Marc-Olivier Méhu
Technical & hardware support : Manuel Goepfert

Contact : metmap@orbifly.com




SOURCES & CREDITS :

   NOAA